sensor_id;sensor_type;location;lat;lon;timestamp;temperature;humidity
39865;DHT22;25538;48.392;9.976;2022-12-07T00:03:40;3.50;99.90
39865;DHT22;25538;48.392;9.976;2022-12-07T00:06:08;3.50;99.90
39865;DHT22;25538;48.392;9.976;2022-12-07T00:08:35;3.60;99.90
39865;DHT22;25538;48.392;9.976;2022-12-07T00:11:06;3.60;99.90
39865;DHT22;25538;48.392;9.976;2022-12-07T00:13:33;3.60;99.90
39865;DHT22;25538;48.392;9.976;2022-12-07T00:16:05;3.60;99.90
39865;DHT22;25538;48.392;9.976;2022-12-07T00:18:31;3.60;99.90
39865;DHT22;25538;48.392;9.976;2022-12-07T00:21:11;3.60;99.90
39865;DHT22;25538;48.392;9.976;2022-12-07T00:23:39;3.60;99.90
39865;DHT22;25538;48.392;9.976;2022-12-07T00:26:12;3.60;99.90
39865;DHT22;25538;48.392;9.976;2022-12-07T00:28:38;3.60;99.90
39865;DHT22;25538;48.392;9.976;2022-12-07T00:31:10;3.70;99.90
39865;DHT22;25538;48.392;9.976;2022-12-07T00:33:37;3.60;99.90
39865;DHT22;25538;48.392;9.976;2022-12-07T00:36:06;3.70;99.90
39865;DHT22;25538;48.392;9.976;2022-12-07T00:38:33;3.70;99.90
39865;DHT22;25538;48.392;9.976;2022-12-07T00:41:04;3.70;99.90
39865;DHT22;25538;48.392;9.976;2022-12-07T00:43:30;3.70;99.90
39865;DHT22;25538;48.392;9.976;2022-12-07T00:45:56;3.70;99.90
39865;DHT22;25538;48.392;9.976;2022-12-07T00:48:23;3.70;99.90
39865;DHT22;25538;48.392;9.976;2022-12-07T00:50:49;3.80;99.90
39865;DHT22;25538;48.392;9.976;2022-12-07T00:53:16;3.80;99.90
39865;DHT22;25538;48.392;9.976;2022-12-07T00:55:42;3.70;99.90
39865;DHT22;25538;48.392;9.976;2022-12-07T00:58:09;3.80;99.90
39865;DHT22;25538;48.392;9.976;2022-12-07T01:00:36;3.70;99.90
39865;DHT22;25538;48.392;9.976;2022-12-07T01:03:04;3.80;99.90
39865;DHT22;25538;48.392;9.976;2022-12-07T01:05:29;3.70;99.90
39865;DHT22;25538;48.392;9.976;2022-12-07T01:07:55;3.70;99.90
39865;DHT22;25538;48.392;9.976;2022-12-07T01:10:22;3.80;99.90
39865;DHT22;25538;48.392;9.976;2022-12-07T01:12:48;3.80;99.90
39865;DHT22;25538;48.392;9.976;2022-12-07T01:15:14;3.80;99.90
39865;DHT22;25538;48.392;9.976;2022-12-07T01:17:40;3.90;99.90
39865;DHT22;25538;48.392;9.976;2022-12-07T01:20:06;3.90;99.90
39865;DHT22;25538;48.392;9.976;2022-12-07T01:22:40;3.90;99.90
39865;DHT22;25538;48.392;9.976;2022-12-07T01:25:07;3.90;99.90
39865;DHT22;25538;48.392;9.976;2022-12-07T01:27:34;3.90;99.90
39865;DHT22;25538;48.392;9.976;2022-12-07T01:30:01;3.90;99.90
39865;DHT22;25538;48.392;9.976;2022-12-07T01:32:27;3.80;99.90
39865;DHT22;25538;48.392;9.976;2022-12-07T01:34:53;3.80;99.90
39865;DHT22;25538;48.392;9.976;2022-12-07T01:37:19;3.80;99.90
39865;DHT22;25538;48.392;9.976;2022-12-07T01:39:48;3.80;99.90
39865;DHT22;25538;48.392;9.976;2022-12-07T01:42:14;3.80;99.90
39865;DHT22;25538;48.392;9.976;2022-12-07T01:47:52;3.80;99.90
39865;DHT22;25538;48.392;9.976;2022-12-07T01:50:20;3.80;99.90
39865;DHT22;25538;48.392;9.976;2022-12-07T01:52:49;3.90;99.90
39865;DHT22;25538;48.392;9.976;2022-12-07T01:55:17;3.90;99.90
39865;DHT22;25538;48.392;9.976;2022-12-07T01:57:48;3.90;99.90
39865;DHT22;25538;48.392;9.976;2022-12-07T02:00:15;3.90;99.90
39865;DHT22;25538;48.392;9.976;2022-12-07T02:05:17;3.90;99.90
39865;DHT22;25538;48.392;9.976;2022-12-07T02:07:44;3.90;99.90
39865;DHT22;25538;48.392;9.976;2022-12-07T02:10:26;3.90;99.90
39865;DHT22;25538;48.392;9.976;2022-12-07T02:13:16;3.90;99.90
39865;DHT22;25538;48.392;9.976;2022-12-07T02:26:45;3.70;99.90
39865;DHT22;25538;48.392;9.976;2022-12-07T02:29:27;3.70;99.90
39865;DHT22;25538;48.392;9.976;2022-12-07T02:32:16;3.70;99.90
39865;DHT22;25538;48.392;9.976;2022-12-07T02:42:55;3.70;99.90
39865;DHT22;25538;48.392;9.976;2022-12-07T02:45:25;3.70;99.90
39865;DHT22;25538;48.392;9.976;2022-12-07T02:47:56;3.70;99.90
39865;DHT22;25538;48.392;9.976;2022-12-07T02:50:24;3.60;99.90
39865;DHT22;25538;48.392;9.976;2022-12-07T02:52:50;3.60;99.90
39865;DHT22;25538;48.392;9.976;2022-12-07T02:55:19;3.50;99.90
39865;DHT22;25538;48.392;9.976;2022-12-07T02:58:11;3.60;99.90
39865;DHT22;25538;48.392;9.976;2022-12-07T03:00:52;3.60;99.90
39865;DHT22;25538;48.392;9.976;2022-12-07T03:03:20;3.60;99.90
39865;DHT22;25538;48.392;9.976;2022-12-07T03:06:02;3.60;99.90
39865;DHT22;25538;48.392;9.976;2022-12-07T03:08:56;3.60;99.90
39865;DHT22;25538;48.392;9.976;2022-12-07T03:11:31;3.70;99.90
39865;DHT22;25538;48.392;9.976;2022-12-07T03:14:03;3.60;99.90
39865;DHT22;25538;48.392;9.976;2022-12-07T03:16:42;3.60;99.90
39865;DHT22;25538;48.392;9.976;2022-12-07T03:19:18;3.60;99.90
39865;DHT22;25538;48.392;9.976;2022-12-07T03:21:49;3.50;99.90
39865;DHT22;25538;48.392;9.976;2022-12-07T03:24:27;3.50;99.90
39865;DHT22;25538;48.392;9.976;2022-12-07T03:27:07;3.50;99.90
39865;DHT22;25538;48.392;9.976;2022-12-07T03:29:38;3.50;99.90
39865;DHT22;25538;48.392;9.976;2022-12-07T03:32:20;3.50;99.90
39865;DHT22;25538;48.392;9.976;2022-12-07T03:42:50;3.50;99.90
39865;DHT22;25538;48.392;9.976;2022-12-07T03:45:16;3.50;99.90
39865;DHT22;25538;48.392;9.976;2022-12-07T03:50:51;3.50;99.90
39865;DHT22;25538;48.392;9.976;2022-12-07T03:54:08;3.50;99.90
39865;DHT22;25538;48.392;9.976;2022-12-07T03:56:30;3.60;99.90
39865;DHT22;25538;48.392;9.976;2022-12-07T03:58:56;3.60;99.90
39865;DHT22;25538;48.392;9.976;2022-12-07T04:01:23;3.60;99.90
39865;DHT22;25538;48.392;9.976;2022-12-07T04:03:49;3.70;99.90
39865;DHT22;25538;48.392;9.976;2022-12-07T04:06:15;3.70;99.90
39865;DHT22;25538;48.392;9.976;2022-12-07T04:08:41;3.70;99.90
39865;DHT22;25538;48.392;9.976;2022-12-07T04:11:07;3.70;99.90
39865;DHT22;25538;48.392;9.976;2022-12-07T04:13:33;3.70;99.90
39865;DHT22;25538;48.392;9.976;2022-12-07T04:16:19;3.70;99.90
39865;DHT22;25538;48.392;9.976;2022-12-07T04:18:45;3.80;99.90
39865;DHT22;25538;48.392;9.976;2022-12-07T04:21:11;3.80;99.90
39865;DHT22;25538;48.392;9.976;2022-12-07T04:23:37;3.80;99.90
39865;DHT22;25538;48.392;9.976;2022-12-07T04:26:03;3.80;99.90
39865;DHT22;25538;48.392;9.976;2022-12-07T04:28:29;3.80;99.90
39865;DHT22;25538;48.392;9.976;2022-12-07T04:30:55;3.80;99.90
39865;DHT22;25538;48.392;9.976;2022-12-07T04:33:21;3.70;99.90
39865;DHT22;25538;48.392;9.976;2022-12-07T04:35:47;3.60;99.90
39865;DHT22;25538;48.392;9.976;2022-12-07T04:38:13;3.60;99.90
39865;DHT22;25538;48.392;9.976;2022-12-07T04:40:38;3.60;99.90
39865;DHT22;25538;48.392;9.976;2022-12-07T04:43:04;3.60;99.90
39865;DHT22;25538;48.392;9.976;2022-12-07T04:45:30;3.50;99.90
39865;DHT22;25538;48.392;9.976;2022-12-07T04:47:56;3.50;99.90
39865;DHT22;25538;48.392;9.976;2022-12-07T04:50:22;3.50;99.90
39865;DHT22;25538;48.392;9.976;2022-12-07T04:52:48;3.40;99.90
39865;DHT22;25538;48.392;9.976;2022-12-07T04:55:14;3.50;99.90
39865;DHT22;25538;48.392;9.976;2022-12-07T04:57:39;3.50;99.90
39865;DHT22;25538;48.392;9.976;2022-12-07T05:00:06;3.40;99.90
39865;DHT22;25538;48.392;9.976;2022-12-07T05:02:32;3.40;99.90
39865;DHT22;25538;48.392;9.976;2022-12-07T05:04:58;3.40;99.90
39865;DHT22;25538;48.392;9.976;2022-12-07T05:07:24;3.40;99.90
39865;DHT22;25538;48.392;9.976;2022-12-07T05:09:49;3.40;99.90
39865;DHT22;25538;48.392;9.976;2022-12-07T05:12:15;3.30;99.90
39865;DHT22;25538;48.392;9.976;2022-12-07T05:14:41;3.30;99.90
39865;DHT22;25538;48.392;9.976;2022-12-07T05:17:07;3.30;99.90
39865;DHT22;25538;48.392;9.976;2022-12-07T05:19:33;3.30;99.90
39865;DHT22;25538;48.392;9.976;2022-12-07T05:21:59;3.30;99.90
39865;DHT22;25538;48.392;9.976;2022-12-07T05:24:25;3.30;99.90
39865;DHT22;25538;48.392;9.976;2022-12-07T05:26:51;3.30;99.90
39865;DHT22;25538;48.392;9.976;2022-12-07T05:29:17;3.30;99.90
39865;DHT22;25538;48.392;9.976;2022-12-07T05:31:43;3.30;99.90
39865;DHT22;25538;48.392;9.976;2022-12-07T05:34:09;3.30;99.90
39865;DHT22;25538;48.392;9.976;2022-12-07T05:36:36;3.30;99.90
39865;DHT22;25538;48.392;9.976;2022-12-07T05:39:03;3.30;99.90
39865;DHT22;25538;48.392;9.976;2022-12-07T05:41:29;3.20;99.90
39865;DHT22;25538;48.392;9.976;2022-12-07T05:44:13;3.10;99.90
39865;DHT22;25538;48.392;9.976;2022-12-07T05:46:39;3.10;99.90
39865;DHT22;25538;48.392;9.976;2022-12-07T05:49:05;3.10;99.90
39865;DHT22;25538;48.392;9.976;2022-12-07T05:51:31;3.10;99.90
39865;DHT22;25538;48.392;9.976;2022-12-07T05:54:03;3.10;99.90
39865;DHT22;25538;48.392;9.976;2022-12-07T05:56:29;3.00;99.90
39865;DHT22;25538;48.392;9.976;2022-12-07T05:58:55;2.90;99.90
39865;DHT22;25538;48.392;9.976;2022-12-07T06:01:40;2.90;99.90
39865;DHT22;25538;48.392;9.976;2022-12-07T06:04:06;2.90;99.90
39865;DHT22;25538;48.392;9.976;2022-12-07T06:06:32;2.90;99.90
39865;DHT22;25538;48.392;9.976;2022-12-07T06:08:57;2.90;99.90
39865;DHT22;25538;48.392;9.976;2022-12-07T06:11:23;2.90;99.90
39865;DHT22;25538;48.392;9.976;2022-12-07T06:14:08;2.90;99.90
39865;DHT22;25538;48.392;9.976;2022-12-07T06:16:34;2.90;99.90
39865;DHT22;25538;48.392;9.976;2022-12-07T06:19:00;2.90;99.90
39865;DHT22;25538;48.392;9.976;2022-12-07T06:21:26;2.90;99.90
39865;DHT22;25538;48.392;9.976;2022-12-07T06:23:52;2.90;99.90
39865;DHT22;25538;48.392;9.976;2022-12-07T06:26:18;2.90;99.90
39865;DHT22;25538;48.392;9.976;2022-12-07T06:28:44;2.90;99.90
39865;DHT22;25538;48.392;9.976;2022-12-07T06:31:10;2.90;99.90
39865;DHT22;25538;48.392;9.976;2022-12-07T06:33:36;2.90;99.90
39865;DHT22;25538;48.392;9.976;2022-12-07T06:36:02;2.90;99.90
39865;DHT22;25538;48.392;9.976;2022-12-07T06:38:28;2.90;99.90
39865;DHT22;25538;48.392;9.976;2022-12-07T06:40:54;2.90;99.90
39865;DHT22;25538;48.392;9.976;2022-12-07T06:43:20;2.90;99.90
39865;DHT22;25538;48.392;9.976;2022-12-07T06:45:46;2.90;99.90
39865;DHT22;25538;48.392;9.976;2022-12-07T06:48:12;2.90;99.90
39865;DHT22;25538;48.392;9.976;2022-12-07T06:50:38;2.90;99.90
39865;DHT22;25538;48.392;9.976;2022-12-07T06:53:04;2.90;99.90
39865;DHT22;25538;48.392;9.976;2022-12-07T06:55:29;2.90;99.90
39865;DHT22;25538;48.392;9.976;2022-12-07T06:57:55;2.90;99.90
39865;DHT22;25538;48.392;9.976;2022-12-07T07:00:21;2.90;99.90
39865;DHT22;25538;48.392;9.976;2022-12-07T07:02:47;2.90;99.90
39865;DHT22;25538;48.392;9.976;2022-12-07T07:05:13;2.90;99.90
39865;DHT22;25538;48.392;9.976;2022-12-07T07:07:39;2.90;99.90
39865;DHT22;25538;48.392;9.976;2022-12-07T07:10:05;2.90;99.90
39865;DHT22;25538;48.392;9.976;2022-12-07T07:12:31;2.90;99.90
39865;DHT22;25538;48.392;9.976;2022-12-07T07:14:57;2.90;99.90
39865;DHT22;25538;48.392;9.976;2022-12-07T07:17:23;2.90;99.90
39865;DHT22;25538;48.392;9.976;2022-12-07T07:19:49;2.90;99.90
39865;DHT22;25538;48.392;9.976;2022-12-07T07:22:15;2.90;99.90
39865;DHT22;25538;48.392;9.976;2022-12-07T07:24:41;2.90;99.90
39865;DHT22;25538;48.392;9.976;2022-12-07T07:27:07;3.00;99.90
39865;DHT22;25538;48.392;9.976;2022-12-07T07:29:33;3.00;99.90
39865;DHT22;25538;48.392;9.976;2022-12-07T07:31:59;2.90;99.90
39865;DHT22;25538;48.392;9.976;2022-12-07T07:34:25;2.90;99.90
39865;DHT22;25538;48.392;9.976;2022-12-07T07:36:51;2.80;99.90
39865;DHT22;25538;48.392;9.976;2022-12-07T07:39:17;2.80;99.90
39865;DHT22;25538;48.392;9.976;2022-12-07T07:41:43;2.70;99.90
39865;DHT22;25538;48.392;9.976;2022-12-07T07:44:09;2.70;99.90
39865;DHT22;25538;48.392;9.976;2022-12-07T07:46:35;2.60;99.90
39865;DHT22;25538;48.392;9.976;2022-12-07T07:49:01;2.60;99.90
39865;DHT22;25538;48.392;9.976;2022-12-07T07:51:27;2.50;99.90
39865;DHT22;25538;48.392;9.976;2022-12-07T07:53:53;2.50;99.90
39865;DHT22;25538;48.392;9.976;2022-12-07T07:56:19;2.50;99.90
39865;DHT22;25538;48.392;9.976;2022-12-07T07:58:46;2.50;99.90
39865;DHT22;25538;48.392;9.976;2022-12-07T08:01:12;2.50;99.90
39865;DHT22;25538;48.392;9.976;2022-12-07T08:03:39;2.60;99.90
39865;DHT22;25538;48.392;9.976;2022-12-07T08:06:05;2.70;99.90
39865;DHT22;25538;48.392;9.976;2022-12-07T08:08:32;2.80;99.90
39865;DHT22;25538;48.392;9.976;2022-12-07T08:10:58;2.90;99.90
39865;DHT22;25538;48.392;9.976;2022-12-07T08:13:26;3.00;99.90
39865;DHT22;25538;48.392;9.976;2022-12-07T08:15:52;3.10;99.90
39865;DHT22;25538;48.392;9.976;2022-12-07T08:18:18;3.30;99.90
39865;DHT22;25538;48.392;9.976;2022-12-07T08:20:44;3.40;99.90
39865;DHT22;25538;48.392;9.976;2022-12-07T08:23:10;3.50;99.90
39865;DHT22;25538;48.392;9.976;2022-12-07T08:25:37;3.60;99.90
39865;DHT22;25538;48.392;9.976;2022-12-07T08:28:03;3.80;99.90
39865;DHT22;25538;48.392;9.976;2022-12-07T08:30:30;4.10;99.90
39865;DHT22;25538;48.392;9.976;2022-12-07T08:32:56;4.20;99.90
39865;DHT22;25538;48.392;9.976;2022-12-07T08:35:22;4.40;99.90
39865;DHT22;25538;48.392;9.976;2022-12-07T08:37:48;4.60;99.90
39865;DHT22;25538;48.392;9.976;2022-12-07T08:40:14;4.50;99.90
39865;DHT22;25538;48.392;9.976;2022-12-07T08:42:42;4.50;99.90
39865;DHT22;25538;48.392;9.976;2022-12-07T08:45:14;4.70;99.90
39865;DHT22;25538;48.392;9.976;2022-12-07T08:47:44;4.80;99.90
39865;DHT22;25538;48.392;9.976;2022-12-07T08:50:12;4.80;99.90
39865;DHT22;25538;48.392;9.976;2022-12-07T08:52:39;4.80;99.90
39865;DHT22;25538;48.392;9.976;2022-12-07T08:55:07;4.80;99.90
39865;DHT22;25538;48.392;9.976;2022-12-07T08:57:35;4.90;99.90
39865;DHT22;25538;48.392;9.976;2022-12-07T09:00:04;4.90;99.90
39865;DHT22;25538;48.392;9.976;2022-12-07T09:02:31;4.90;99.90
39865;DHT22;25538;48.392;9.976;2022-12-07T09:04:57;5.00;99.90
39865;DHT22;25538;48.392;9.976;2022-12-07T09:07:24;5.00;99.90
39865;DHT22;25538;48.392;9.976;2022-12-07T09:09:50;4.90;99.90
39865;DHT22;25538;48.392;9.976;2022-12-07T09:12:16;5.00;99.90
39865;DHT22;25538;48.392;9.976;2022-12-07T09:14:42;5.20;99.90
39865;DHT22;25538;48.392;9.976;2022-12-07T09:17:10;5.30;99.90
39865;DHT22;25538;48.392;9.976;2022-12-07T09:19:36;5.40;99.90
39865;DHT22;25538;48.392;9.976;2022-12-07T09:22:03;5.50;99.90
39865;DHT22;25538;48.392;9.976;2022-12-07T09:24:31;5.60;99.90
39865;DHT22;25538;48.392;9.976;2022-12-07T09:26:58;5.50;99.90
39865;DHT22;25538;48.392;9.976;2022-12-07T09:29:24;5.50;99.90
39865;DHT22;25538;48.392;9.976;2022-12-07T09:31:51;5.60;99.90
39865;DHT22;25538;48.392;9.976;2022-12-07T09:34:17;5.70;99.90
39865;DHT22;25538;48.392;9.976;2022-12-07T09:36:44;5.80;99.90
39865;DHT22;25538;48.392;9.976;2022-12-07T09:39:10;5.70;99.90
39865;DHT22;25538;48.392;9.976;2022-12-07T09:41:41;5.80;99.90
39865;DHT22;25538;48.392;9.976;2022-12-07T09:44:23;5.70;99.90
39865;DHT22;25538;48.392;9.976;2022-12-07T09:46:49;5.80;99.90
39865;DHT22;25538;48.392;9.976;2022-12-07T09:49:24;5.80;99.90
39865;DHT22;25538;48.392;9.976;2022-12-07T09:52:47;5.90;99.90
39865;DHT22;25538;48.392;9.976;2022-12-07T09:54:49;6.00;99.90
39865;DHT22;25538;48.392;9.976;2022-12-07T09:57:16;6.30;99.90
39865;DHT22;25538;48.392;9.976;2022-12-07T09:59:42;6.50;99.90
39865;DHT22;25538;48.392;9.976;2022-12-07T10:02:25;6.60;99.90
39865;DHT22;25538;48.392;9.976;2022-12-07T10:04:53;6.80;99.90
39865;DHT22;25538;48.392;9.976;2022-12-07T10:07:19;7.00;99.90
39865;DHT22;25538;48.392;9.976;2022-12-07T10:09:45;7.00;99.90
39865;DHT22;25538;48.392;9.976;2022-12-07T10:12:12;7.60;99.90
39865;DHT22;25538;48.392;9.976;2022-12-07T10:14:48;7.90;99.90
39865;DHT22;25538;48.392;9.976;2022-12-07T10:22:34;8.40;99.90
39865;DHT22;25538;48.392;9.976;2022-12-07T10:25:08;8.40;99.90
39865;DHT22;25538;48.392;9.976;2022-12-07T10:27:35;8.60;99.90
39865;DHT22;25538;48.392;9.976;2022-12-07T10:30:07;8.90;99.90
39865;DHT22;25538;48.392;9.976;2022-12-07T10:32:35;9.30;99.90
39865;DHT22;25538;48.392;9.976;2022-12-07T10:35:29;9.20;99.90
39865;DHT22;25538;48.392;9.976;2022-12-07T10:37:58;9.20;99.90
39865;DHT22;25538;48.392;9.976;2022-12-07T10:40:35;9.10;99.90
39865;DHT22;25538;48.392;9.976;2022-12-07T10:43:15;8.90;99.90
39865;DHT22;25538;48.392;9.976;2022-12-07T10:51:32;8.90;99.90
39865;DHT22;25538;48.392;9.976;2022-12-07T10:59:47;9.10;99.90
39865;DHT22;25538;48.392;9.976;2022-12-07T11:10:46;10.20;99.90
39865;DHT22;25538;48.392;9.976;2022-12-07T11:18:38;9.80;99.90
39865;DHT22;25538;48.392;9.976;2022-12-07T11:24:10;9.30;99.90
39865;DHT22;25538;48.392;9.976;2022-12-07T11:32:45;9.30;99.90
39865;DHT22;25538;48.392;9.976;2022-12-07T11:38:15;9.10;99.90
39865;DHT22;25538;48.392;9.976;2022-12-07T11:40:48;9.30;99.90
39865;DHT22;25538;48.392;9.976;2022-12-07T11:45:51;9.90;99.90
39865;DHT22;25538;48.392;9.976;2022-12-07T11:48:29;9.60;99.70
39865;DHT22;25538;48.392;9.976;2022-12-07T11:50:57;9.50;99.90
39865;DHT22;25538;48.392;9.976;2022-12-07T11:53:42;9.50;99.90
39865;DHT22;25538;48.392;9.976;2022-12-07T11:56:15;9.40;99.90
39865;DHT22;25538;48.392;9.976;2022-12-07T12:06:40;8.80;99.90
39865;DHT22;25538;48.392;9.976;2022-12-07T12:20:19;9.00;99.30
39865;DHT22;25538;48.392;9.976;2022-12-07T12:22:55;8.80;99.50
39865;DHT22;25538;48.392;9.976;2022-12-07T12:25:34;8.90;99.70
39865;DHT22;25538;48.392;9.976;2022-12-07T12:28:02;8.90;98.90
39865;DHT22;25538;48.392;9.976;2022-12-07T12:30:33;8.70;99.00
39865;DHT22;25538;48.392;9.976;2022-12-07T12:33:46;8.40;99.60
39865;DHT22;25538;48.392;9.976;2022-12-07T12:47:03;8.20;99.90
39865;DHT22;25538;48.392;9.976;2022-12-07T12:49:41;8.50;99.90
39865;DHT22;25538;48.392;9.976;2022-12-07T12:54:36;8.50;99.90
39865;DHT22;25538;48.392;9.976;2022-12-07T12:57:19;8.50;99.90
39865;DHT22;25538;48.392;9.976;2022-12-07T13:02:49;8.00;99.90
39865;DHT22;25538;48.392;9.976;2022-12-07T13:05:26;8.00;99.90
39865;DHT22;25538;48.392;9.976;2022-12-07T13:15:55;8.00;99.90
39865;DHT22;25538;48.392;9.976;2022-12-07T13:18:40;7.90;99.90
39865;DHT22;25538;48.392;9.976;2022-12-07T13:26:20;8.10;99.90
39865;DHT22;25538;48.392;9.976;2022-12-07T13:31:31;8.30;99.90
39865;DHT22;25538;48.392;9.976;2022-12-07T13:33:58;8.40;99.90
39865;DHT22;25538;48.392;9.976;2022-12-07T13:36:27;8.30;99.90
39865;DHT22;25538;48.392;9.976;2022-12-07T13:38:58;8.50;99.90
39865;DHT22;25538;48.392;9.976;2022-12-07T13:41:26;8.60;99.70
39865;DHT22;25538;48.392;9.976;2022-12-07T13:46:41;8.30;99.50
39865;DHT22;25538;48.392;9.976;2022-12-07T13:49:44;8.30;99.90
39865;DHT22;25538;48.392;9.976;2022-12-07T13:52:16;8.50;99.90
39865;DHT22;25538;48.392;9.976;2022-12-07T13:54:55;8.60;99.60
39865;DHT22;25538;48.392;9.976;2022-12-07T13:57:22;8.30;99.20
39865;DHT22;25538;48.392;9.976;2022-12-07T13:59:49;8.30;99.20
39865;DHT22;25538;48.392;9.976;2022-12-07T14:04:49;8.20;99.90
39865;DHT22;25538;48.392;9.976;2022-12-07T14:07:24;8.20;99.90
39865;DHT22;25538;48.392;9.976;2022-12-07T14:10:02;8.00;99.50
39865;DHT22;25538;48.392;9.976;2022-12-07T14:12:30;7.90;99.30
39865;DHT22;25538;48.392;9.976;2022-12-07T14:14:57;7.90;99.70
39865;DHT22;25538;48.392;9.976;2022-12-07T14:17:25;7.90;99.90
39865;DHT22;25538;48.392;9.976;2022-12-07T14:19:52;7.90;99.90
39865;DHT22;25538;48.392;9.976;2022-12-07T14:27:33;8.00;98.60
39865;DHT22;25538;48.392;9.976;2022-12-07T14:30:04;7.70;99.10
39865;DHT22;25538;48.392;9.976;2022-12-07T14:32:30;7.40;99.50
39865;DHT22;25538;48.392;9.976;2022-12-07T14:34:57;7.20;99.50
39865;DHT22;25538;48.392;9.976;2022-12-07T14:37:24;7.10;99.60
39865;DHT22;25538;48.392;9.976;2022-12-07T14:39:50;6.90;99.90
39865;DHT22;25538;48.392;9.976;2022-12-07T14:42:16;6.80;99.90
39865;DHT22;25538;48.392;9.976;2022-12-07T14:44:43;6.70;99.90
39865;DHT22;25538;48.392;9.976;2022-12-07T14:47:12;6.70;99.90
39865;DHT22;25538;48.392;9.976;2022-12-07T14:49:38;6.70;99.90
39865;DHT22;25538;48.392;9.976;2022-12-07T14:52:06;6.60;99.90
39865;DHT22;25538;48.392;9.976;2022-12-07T14:54:37;6.40;99.90
39865;DHT22;25538;48.392;9.976;2022-12-07T14:57:02;6.30;99.90
39865;DHT22;25538;48.392;9.976;2022-12-07T14:59:28;6.20;99.90
39865;DHT22;25538;48.392;9.976;2022-12-07T15:01:54;6.20;99.90
39865;DHT22;25538;48.392;9.976;2022-12-07T15:04:20;6.10;99.90
39865;DHT22;25538;48.392;9.976;2022-12-07T15:07:00;6.00;99.90
39865;DHT22;25538;48.392;9.976;2022-12-07T15:09:26;5.90;99.90
39865;DHT22;25538;48.392;9.976;2022-12-07T15:11:52;5.80;99.90
39865;DHT22;25538;48.392;9.976;2022-12-07T15:14:18;5.70;99.90
39865;DHT22;25538;48.392;9.976;2022-12-07T15:16:44;5.60;99.90
39865;DHT22;25538;48.392;9.976;2022-12-07T15:19:16;5.60;99.90
39865;DHT22;25538;48.392;9.976;2022-12-07T15:21:43;5.50;99.90
39865;DHT22;25538;48.392;9.976;2022-12-07T15:24:10;5.50;99.90
39865;DHT22;25538;48.392;9.976;2022-12-07T15:26:37;5.40;99.90
39865;DHT22;25538;48.392;9.976;2022-12-07T15:29:03;5.40;99.90
39865;DHT22;25538;48.392;9.976;2022-12-07T15:31:29;5.40;99.90
39865;DHT22;25538;48.392;9.976;2022-12-07T15:33:55;5.30;99.90
39865;DHT22;25538;48.392;9.976;2022-12-07T15:36:23;5.30;99.90
39865;DHT22;25538;48.392;9.976;2022-12-07T15:38:49;5.30;99.90
39865;DHT22;25538;48.392;9.976;2022-12-07T15:41:16;5.20;99.90
39865;DHT22;25538;48.392;9.976;2022-12-07T15:43:42;5.20;99.90
39865;DHT22;25538;48.392;9.976;2022-12-07T15:46:31;5.20;99.90
39865;DHT22;25538;48.392;9.976;2022-12-07T15:48:57;5.20;99.90
39865;DHT22;25538;48.392;9.976;2022-12-07T15:51:23;5.10;99.90
39865;DHT22;25538;48.392;9.976;2022-12-07T15:53:49;5.10;99.90
39865;DHT22;25538;48.392;9.976;2022-12-07T15:56:15;5.00;99.90
39865;DHT22;25538;48.392;9.976;2022-12-07T15:58:41;5.00;99.90
39865;DHT22;25538;48.392;9.976;2022-12-07T16:01:14;5.00;99.90
39865;DHT22;25538;48.392;9.976;2022-12-07T16:03:41;4.90;99.90
39865;DHT22;25538;48.392;9.976;2022-12-07T16:06:08;4.90;99.90
39865;DHT22;25538;48.392;9.976;2022-12-07T16:08:34;4.90;99.90
39865;DHT22;25538;48.392;9.976;2022-12-07T16:11:03;4.90;99.90
39865;DHT22;25538;48.392;9.976;2022-12-07T16:13:29;4.90;99.90
39865;DHT22;25538;48.392;9.976;2022-12-07T16:15:55;5.00;99.90
39865;DHT22;25538;48.392;9.976;2022-12-07T16:18:21;5.00;99.90
39865;DHT22;25538;48.392;9.976;2022-12-07T16:20:48;4.90;99.90
39865;DHT22;25538;48.392;9.976;2022-12-07T16:23:15;4.90;99.90
39865;DHT22;25538;48.392;9.976;2022-12-07T16:25:41;4.90;99.90
39865;DHT22;25538;48.392;9.976;2022-12-07T16:28:07;4.90;99.90
39865;DHT22;25538;48.392;9.976;2022-12-07T16:30:33;4.80;99.90
39865;DHT22;25538;48.392;9.976;2022-12-07T16:32:59;4.80;99.90
39865;DHT22;25538;48.392;9.976;2022-12-07T16:35:25;4.80;99.90
39865;DHT22;25538;48.392;9.976;2022-12-07T16:37:51;4.80;99.90
39865;DHT22;25538;48.392;9.976;2022-12-07T16:40:17;4.70;99.90
39865;DHT22;25538;48.392;9.976;2022-12-07T16:42:43;4.70;99.90
39865;DHT22;25538;48.392;9.976;2022-12-07T16:45:09;4.60;99.90
39865;DHT22;25538;48.392;9.976;2022-12-07T16:47:37;4.60;99.90
39865;DHT22;25538;48.392;9.976;2022-12-07T16:50:04;4.60;99.90
39865;DHT22;25538;48.392;9.976;2022-12-07T16:52:30;4.70;99.90
39865;DHT22;25538;48.392;9.976;2022-12-07T16:54:56;4.70;99.90
39865;DHT22;25538;48.392;9.976;2022-12-07T16:57:22;4.60;99.90
39865;DHT22;25538;48.392;9.976;2022-12-07T16:59:48;4.60;99.90
39865;DHT22;25538;48.392;9.976;2022-12-07T17:02:14;4.60;99.90
39865;DHT22;25538;48.392;9.976;2022-12-07T17:04:40;4.50;99.90
39865;DHT22;25538;48.392;9.976;2022-12-07T17:07:08;4.50;99.90
39865;DHT22;25538;48.392;9.976;2022-12-07T17:09:34;4.40;99.90
39865;DHT22;25538;48.392;9.976;2022-12-07T17:12:01;4.40;99.90
39865;DHT22;25538;48.392;9.976;2022-12-07T17:14:27;4.40;99.90
39865;DHT22;25538;48.392;9.976;2022-12-07T17:17:11;4.40;99.90
39865;DHT22;25538;48.392;9.976;2022-12-07T17:19:38;4.40;99.90
39865;DHT22;25538;48.392;9.976;2022-12-07T17:22:04;4.30;99.90
39865;DHT22;25538;48.392;9.976;2022-12-07T17:24:30;4.30;99.90
39865;DHT22;25538;48.392;9.976;2022-12-07T17:26:55;4.30;99.90
39865;DHT22;25538;48.392;9.976;2022-12-07T17:29:21;4.30;99.90
39865;DHT22;25538;48.392;9.976;2022-12-07T17:31:48;4.30;99.90
39865;DHT22;25538;48.392;9.976;2022-12-07T17:34:15;4.30;99.90
39865;DHT22;25538;48.392;9.976;2022-12-07T17:36:41;4.30;99.90
39865;DHT22;25538;48.392;9.976;2022-12-07T17:39:12;4.30;99.90
39865;DHT22;25538;48.392;9.976;2022-12-07T17:41:39;4.30;99.90
39865;DHT22;25538;48.392;9.976;2022-12-07T17:44:24;4.30;99.90
39865;DHT22;25538;48.392;9.976;2022-12-07T17:46:52;4.40;99.90
39865;DHT22;25538;48.392;9.976;2022-12-07T17:49:27;4.30;99.90
39865;DHT22;25538;48.392;9.976;2022-12-07T17:51:53;4.40;99.90
39865;DHT22;25538;48.392;9.976;2022-12-07T17:54:38;4.40;99.90
39865;DHT22;25538;48.392;9.976;2022-12-07T17:57:04;4.50;99.90
39865;DHT22;25538;48.392;9.976;2022-12-07T17:59:30;4.50;99.90
39865;DHT22;25538;48.392;9.976;2022-12-07T18:01:56;4.50;99.90
39865;DHT22;25538;48.392;9.976;2022-12-07T18:04:22;4.50;99.90
39865;DHT22;25538;48.392;9.976;2022-12-07T18:06:47;4.50;99.90
39865;DHT22;25538;48.392;9.976;2022-12-07T18:09:13;4.50;99.90
39865;DHT22;25538;48.392;9.976;2022-12-07T18:11:39;4.50;99.90
39865;DHT22;25538;48.392;9.976;2022-12-07T18:14:05;4.50;99.90
39865;DHT22;25538;48.392;9.976;2022-12-07T18:16:32;4.50;99.90
39865;DHT22;25538;48.392;9.976;2022-12-07T18:19:01;4.40;99.90
39865;DHT22;25538;48.392;9.976;2022-12-07T18:21:29;4.40;99.90